createdAt,value
2018-04-16T00:01:25.788Z,98987
2018-04-16T00:03:31.356Z,98981
2018-04-16T00:05:35.424Z,98984
2018-04-16T00:07:38.607Z,98991
2018-04-16T00:09:41.750Z,98987
2018-04-16T00:11:44.896Z,98990
2018-04-16T00:13:49.446Z,98988
2018-04-16T00:15:52.600Z,98991
2018-04-16T00:17:55.776Z,98985
2018-04-16T00:19:58.952Z,98979
2018-04-16T00:22:02.900Z,98991
2018-04-16T00:24:06.056Z,98986
2018-04-16T00:26:09.205Z,98981
2018-04-16T00:28:13.148Z,98987
2018-04-16T00:30:16.296Z,98984
2018-04-16T00:32:25.163Z,98980
2018-04-16T00:34:34.676Z,98985
2018-04-16T00:36:43.430Z,98983
2018-04-16T00:38:52.216Z,98985
2018-04-16T00:41:01.079Z,98991
2018-04-16T00:43:09.757Z,98993
2018-04-16T00:45:19.290Z,99000
2018-04-16T00:47:27.951Z,98990
2018-04-16T00:49:37.326Z,98997
2018-04-16T00:51:46.021Z,98989
2018-04-16T00:54:12.437Z,98992
2018-04-16T00:56:22.403Z,98995
2018-04-16T00:58:30.938Z,98993
2018-04-16T01:00:39.588Z,99001
2018-04-16T01:02:48.202Z,99003
2018-04-16T01:04:56.770Z,99001
2018-04-16T01:07:05.549Z,99002
2018-04-16T01:09:15.051Z,98999
2018-04-16T01:11:24.500Z,98997
2018-04-16T01:13:34.066Z,99006
2018-04-16T01:15:42.583Z,99011
2018-04-16T01:17:52.046Z,99006
2018-04-16T01:20:00.693Z,99004
2018-04-16T01:22:09.463Z,99005
2018-04-16T01:24:18.222Z,99005
2018-04-16T01:29:11.101Z,99014
2018-04-16T01:31:21.962Z,99019
2018-04-16T01:33:31.148Z,99022
2018-04-16T01:35:41.979Z,99022
2018-04-16T01:37:50.874Z,99026
2018-04-16T01:40:00.305Z,99026
2018-04-16T01:42:10.298Z,99019
2018-04-16T01:44:20.262Z,99030
2018-04-16T01:46:29.927Z,99028
2018-04-16T01:48:39.076Z,99026
2018-04-16T01:50:48.263Z,99025
2018-04-16T01:52:56.980Z,99033
2018-04-16T01:55:05.690Z,99023
2018-04-16T01:57:14.317Z,99015
2018-04-16T02:02:03.958Z,99027
2018-04-16T02:04:12.743Z,99017
2018-04-16T02:06:22.131Z,99014
2018-04-16T02:08:30.780Z,99019
2018-04-16T02:10:39.591Z,99016
2018-04-16T02:12:48.254Z,99017
2018-04-16T02:14:56.826Z,99009
2018-04-16T02:19:46.987Z,99009
2018-04-16T02:21:55.835Z,99004
2018-04-16T02:24:04.439Z,99012
2018-04-16T02:26:13.087Z,99020
2018-04-16T02:28:21.855Z,99013
2018-04-16T02:30:30.567Z,99011
2018-04-16T02:32:39.291Z,98999
2018-04-16T02:34:48.060Z,99012
2018-04-16T02:36:56.824Z,99017
2018-04-16T02:39:05.560Z,99019
2018-04-16T02:41:14.340Z,99019
2018-04-16T02:43:22.911Z,99031
2018-04-16T02:45:32.516Z,99028
2018-04-16T02:47:42.013Z,99021
2018-04-16T02:49:51.450Z,99026
2018-04-16T02:52:00.975Z,99027
2018-04-16T02:54:09.589Z,99021
2018-04-16T02:56:18.433Z,99026
2018-04-16T02:58:27.239Z,99020
2018-04-16T03:00:36.335Z,99024
2018-04-16T03:02:46.443Z,99022
2018-04-16T03:04:57.068Z,99027
2018-04-16T03:07:06.366Z,99027
2018-04-16T03:09:15.860Z,99025
2018-04-16T03:11:24.666Z,99031
2018-04-16T03:13:33.416Z,99039
2018-04-16T03:15:42.023Z,99037
2018-04-16T03:17:50.576Z,99041
2018-04-16T03:22:40.191Z,99044
2018-04-16T03:24:48.891Z,99042
2018-04-16T03:26:58.251Z,99043
2018-04-16T03:29:07.011Z,99047
2018-04-16T03:31:16.362Z,99042
2018-04-16T03:33:25.879Z,99047
2018-04-16T03:35:36.566Z,99042
2018-04-16T03:37:46.717Z,99056
2018-04-16T03:39:55.356Z,99057
2018-04-16T03:42:04.679Z,99055
2018-04-16T03:44:13.406Z,99057
2018-04-16T03:46:21.959Z,99054
2018-04-16T03:48:31.920Z,99055
2018-04-16T03:50:41.818Z,99051
2018-04-16T03:52:50.336Z,99059
2018-04-16T03:54:53.479Z,99058
2018-04-16T03:56:57.420Z,99067
2018-04-16T03:59:01.756Z,99066
2018-04-16T04:01:04.938Z,99060
2018-04-16T04:03:08.079Z,99075
2018-04-16T04:05:11.562Z,99077
2018-04-16T04:07:16.553Z,99087
2018-04-16T04:09:22.173Z,99074
2018-04-16T04:11:25.832Z,99086
2018-04-16T04:13:31.175Z,99084
2018-04-16T04:15:34.463Z,99093
2018-04-16T04:17:37.640Z,99083
2018-04-16T04:19:42.700Z,99092
2018-04-16T04:21:46.099Z,99098
2018-04-16T04:24:07.778Z,99088
2018-04-16T04:26:28.926Z,99109
2018-04-16T04:28:50.267Z,99100
2018-04-16T04:30:54.918Z,99102
2018-04-16T04:32:59.919Z,99104
2018-04-16T04:35:04.090Z,99105
2018-04-16T04:37:08.004Z,99104
2018-04-16T04:39:12.794Z,99102
2018-04-16T04:41:17.246Z,99104
2018-04-16T04:43:22.711Z,99106
2018-04-16T04:45:27.619Z,99110
2018-04-16T04:47:32.253Z,99114
2018-04-16T04:49:36.236Z,99109
2018-04-16T04:51:40.315Z,99121
2018-04-16T04:53:43.635Z,99119
2018-04-16T04:55:46.815Z,99131
2018-04-16T04:57:50.750Z,99121
2018-04-16T04:59:54.676Z,99110
2018-04-16T05:01:58.583Z,99122
2018-04-16T05:04:01.780Z,99124
2018-04-16T05:06:04.931Z,99126
2018-04-16T05:08:09.328Z,99123
2018-04-16T05:10:14.316Z,99126
2018-04-16T05:12:18.377Z,99128
2018-04-16T05:14:22.401Z,99125
2018-04-16T05:16:26.572Z,99128
2018-04-16T05:18:31.950Z,99132
2018-04-16T05:20:35.254Z,99127
2018-04-16T05:22:39.191Z,99134
2018-04-16T05:24:42.402Z,99142
2018-04-16T05:26:46.315Z,99140
2018-04-16T05:28:51.020Z,99133
2018-04-16T05:30:54.208Z,99135
2018-04-16T05:32:57.360Z,99142
2018-04-16T05:35:00.519Z,99140
2018-04-16T05:37:05.201Z,99147
2018-04-16T05:39:10.980Z,99155
2018-04-16T05:41:16.015Z,99150
2018-04-16T05:43:19.947Z,99155
2018-04-16T05:45:23.097Z,99153
2018-04-16T05:47:26.243Z,99157
2018-04-16T05:49:29.412Z,99159
2018-04-16T05:51:32.573Z,99154
2018-04-16T05:53:35.726Z,99164
2018-04-16T05:55:38.903Z,99159
2018-04-16T05:57:42.045Z,99158
2018-04-16T05:59:45.599Z,99171
2018-04-16T06:01:48.744Z,99172
2018-04-16T06:03:52.658Z,99181
2018-04-16T06:05:55.839Z,99179
2018-04-16T06:07:59.016Z,99180
2018-04-16T06:10:02.155Z,99179
2018-04-16T06:12:05.746Z,99190
2018-04-16T06:14:08.917Z,99182
2018-04-16T06:16:12.865Z,99186
2018-04-16T06:18:16.009Z,99185
2018-04-16T06:20:19.175Z,99197
2018-04-16T06:22:22.358Z,99193
2018-04-16T06:24:29.834Z,99182
2018-04-16T06:26:33.512Z,99186
2018-04-16T06:28:38.981Z,99201
2018-04-16T06:30:43.284Z,99196
2018-04-16T06:32:48.312Z,99197
2018-04-16T06:34:52.264Z,99210
2018-04-16T06:36:56.262Z,99211
2018-04-16T06:39:00.105Z,99214
2018-04-16T06:41:04.192Z,99205
2018-04-16T06:43:08.339Z,99207
2018-04-16T06:45:11.519Z,99220
2018-04-16T06:47:14.672Z,99217
2018-04-16T06:49:17.847Z,99218
2018-04-16T06:51:21.031Z,99213
2018-04-16T06:53:24.215Z,99219
2018-04-16T06:55:29.244Z,99213
2018-04-16T06:57:33.932Z,99218
2018-04-16T06:59:37.092Z,99214
2018-04-16T07:01:40.277Z,99209
2018-04-16T07:03:43.466Z,99219
2018-04-16T07:05:46.665Z,99213
2018-04-16T07:07:49.824Z,99217
2018-04-16T07:09:53.767Z,99213
2018-04-16T07:11:57.683Z,99217
2018-04-16T07:14:00.867Z,99206
2018-04-16T07:16:09.397Z,99211
2018-04-16T07:18:13.618Z,99210
2018-04-16T07:20:17.208Z,99212
2018-04-16T07:22:21.208Z,99199
2018-04-16T07:24:25.151Z,99197
2018-04-16T07:26:29.418Z,99201
2018-04-16T07:28:32.587Z,99214
2018-04-16T07:30:35.737Z,99216
2018-04-16T07:32:38.918Z,99211
2018-04-16T07:34:42.067Z,99210
2018-04-16T07:36:45.222Z,99217
2018-04-16T07:38:48.424Z,99219
2018-04-16T07:40:52.361Z,99218
2018-04-16T07:42:55.525Z,99222
2018-04-16T07:45:00.202Z,99237
2018-04-16T07:47:04.151Z,99230
2018-04-16T07:49:07.356Z,99240
2018-04-16T07:51:10.499Z,99229
2018-04-16T07:53:13.651Z,99238
2018-04-16T07:55:17.611Z,99236
2018-04-16T07:57:20.756Z,99237
2018-04-16T07:59:23.911Z,99243
2018-04-16T08:01:27.150Z,99239
2018-04-16T08:03:30.600Z,99253
2018-04-16T08:05:33.750Z,99246
2018-04-16T08:07:36.927Z,99260
2018-04-16T08:09:40.838Z,99245
2018-04-16T08:11:44.011Z,99249
2018-04-16T08:13:47.162Z,99249
2018-04-16T08:15:51.110Z,99264
2018-04-16T08:17:54.299Z,99264
2018-04-16T08:19:58.215Z,99264
2018-04-16T08:22:02.131Z,99259
2018-04-16T08:24:05.343Z,99261
2018-04-16T08:26:08.495Z,99269
2018-04-16T08:28:11.650Z,99264
2018-04-16T08:30:14.841Z,99263
2018-04-16T08:32:18.767Z,99257
2018-04-16T08:34:21.920Z,99259
2018-04-16T08:36:25.894Z,99252
2018-04-16T08:38:29.065Z,99268
2018-04-16T08:40:32.236Z,99260
2018-04-16T08:42:35.415Z,99262
2018-04-16T08:44:38.571Z,99269
2018-04-16T08:46:42.479Z,99268
2018-04-16T08:48:45.658Z,99266
2018-04-16T08:50:48.814Z,99274
2018-04-16T08:52:52.772Z,99271
2018-04-16T08:54:55.924Z,99266
2018-04-16T08:56:59.070Z,99268
2018-04-16T08:59:02.251Z,99273
2018-04-16T09:01:05.405Z,99276
2018-04-16T09:03:08.583Z,99277
2018-04-16T09:05:12.498Z,99276
2018-04-16T09:07:16.411Z,99275
2018-04-16T09:09:19.596Z,99281
2018-04-16T09:11:22.752Z,99277
2018-04-16T09:13:26.676Z,99285
2018-04-16T09:15:30.655Z,99286
2018-04-16T09:17:34.958Z,99281
2018-04-16T09:19:38.168Z,99280
2018-04-16T09:21:41.351Z,99288
2018-04-16T09:23:45.295Z,99284
2018-04-16T09:25:48.471Z,99284
2018-04-16T09:27:51.617Z,99290
2018-04-16T09:29:55.462Z,99289
2018-04-16T09:31:58.639Z,99299
2018-04-16T09:34:01.840Z,99305
2018-04-16T09:36:05.817Z,99296
2018-04-16T09:38:09.028Z,99306
2018-04-16T09:40:12.216Z,99295
2018-04-16T09:42:16.546Z,99309
2018-04-16T09:44:19.720Z,99313
2018-04-16T09:46:24.828Z,99311
2018-04-16T09:48:28.754Z,99316
2018-04-16T09:50:32.114Z,99313
2018-04-16T09:52:36.039Z,99312
2018-04-16T09:54:39.956Z,99326
2018-04-16T09:56:43.899Z,99323
2018-04-16T09:58:47.081Z,99330
2018-04-16T10:00:52.174Z,99325
2018-04-16T10:02:58.059Z,99320
2018-04-16T10:05:01.231Z,99317
2018-04-16T10:07:05.187Z,99327
2018-04-16T10:09:08.371Z,99322
2018-04-16T10:11:11.519Z,99327
2018-04-16T10:13:14.722Z,99321
2018-04-16T10:15:17.870Z,99323
2018-04-16T10:17:21.169Z,99327
2018-04-16T10:19:24.342Z,99335
2018-04-16T10:21:27.509Z,99334
2018-04-16T10:23:31.419Z,99335
2018-04-16T10:25:34.607Z,99340
2018-04-16T10:27:37.756Z,99343
2018-04-16T10:29:41.859Z,99335
2018-04-16T10:31:45.051Z,99333
2018-04-16T10:33:48.203Z,99342
2018-04-16T10:35:52.139Z,99346
2018-04-16T10:37:55.282Z,99344
2018-04-16T10:39:58.455Z,99351
2018-04-16T10:42:01.648Z,99342
2018-04-16T10:44:05.568Z,99344
2018-04-16T10:46:09.523Z,99343
2018-04-16T10:48:12.667Z,99344
2018-04-16T10:50:15.825Z,99338
2018-04-16T10:52:19.003Z,99343
2018-04-16T10:54:22.184Z,99339
2018-04-16T10:56:25.364Z,99353
2018-04-16T10:58:28.535Z,99343
2018-04-16T11:00:32.511Z,99348
2018-04-16T11:02:35.684Z,99335
2018-04-16T11:04:39.608Z,99334
2018-04-16T11:06:43.580Z,99338
2018-04-16T11:08:46.731Z,99347
2018-04-16T11:10:50.010Z,99344
2018-04-16T11:12:53.204Z,99353
2018-04-16T11:14:56.375Z,99345
2018-04-16T11:17:00.000Z,99348
2018-04-16T11:19:03.247Z,99338
2018-04-16T11:21:06.535Z,99353
2018-04-16T11:23:09.680Z,99354
2018-04-16T11:25:12.854Z,99345
2018-04-16T11:27:16.008Z,99339
2018-04-16T11:29:20.302Z,99351
2018-04-16T11:31:23.482Z,99353
2018-04-16T11:33:27.406Z,99352
2018-04-16T11:35:30.586Z,99359
2018-04-16T11:37:33.726Z,99367
2018-04-16T11:39:37.743Z,99365
2018-04-16T11:41:41.666Z,99353
2018-04-16T11:43:45.825Z,99361
2018-04-16T11:45:48.984Z,99356
2018-04-16T11:47:52.167Z,99358
2018-04-16T11:49:55.355Z,99364
2018-04-16T11:51:58.512Z,99366
2018-04-16T11:54:01.686Z,99369
2018-04-16T11:56:04.875Z,99378
2018-04-16T11:58:08.020Z,99383
2018-04-16T12:00:11.179Z,99388
2018-04-16T12:02:14.401Z,99392
2018-04-16T12:04:17.582Z,99382
2018-04-16T12:06:21.524Z,99392
2018-04-16T12:08:24.707Z,99394
2018-04-16T12:10:28.623Z,99390
2018-04-16T12:12:31.805Z,99383
2018-04-16T12:14:34.983Z,99383
2018-04-16T12:16:38.170Z,99370
2018-04-16T12:18:41.332Z,99384
2018-04-16T12:20:44.482Z,99374
2018-04-16T12:22:48.436Z,99379
2018-04-16T12:24:51.579Z,99368
2018-04-16T12:26:55.525Z,99375
2018-04-16T12:28:58.706Z,99380
2018-04-16T12:31:01.885Z,99387
2018-04-16T12:33:05.520Z,99390
2018-04-16T12:35:08.715Z,99395
2018-04-16T12:37:11.901Z,99390
2018-04-16T12:39:15.083Z,99389
2018-04-16T12:41:18.230Z,99389
2018-04-16T12:43:21.388Z,99388
2018-04-16T12:45:24.579Z,99396
2018-04-16T12:47:27.741Z,99391
2018-04-16T12:49:30.909Z,99391
2018-04-16T12:51:34.079Z,99396
2018-04-16T12:53:37.237Z,99403
2018-04-16T12:55:40.575Z,99397
2018-04-16T12:57:44.548Z,99400
2018-04-16T12:59:47.726Z,99397
2018-04-16T13:01:50.935Z,99404
2018-04-16T13:03:54.153Z,99416
2018-04-16T13:05:57.324Z,99407
2018-04-16T13:08:01.872Z,99408
2018-04-16T13:10:05.835Z,99402
2018-04-16T13:12:09.078Z,99400
2018-04-16T13:14:12.350Z,99402
2018-04-16T13:16:15.567Z,99401
2018-04-16T13:18:18.858Z,99401
2018-04-16T13:20:22.055Z,99411
2018-04-16T13:22:26.074Z,99407
2018-04-16T13:24:30.004Z,99410
2018-04-16T13:26:34.151Z,99407
2018-04-16T13:28:37.341Z,99419
2018-04-16T13:30:41.304Z,99416
2018-04-16T13:32:44.463Z,99416
2018-04-16T13:34:47.646Z,99418
2018-04-16T13:36:50.840Z,99423
2018-04-16T13:38:55.138Z,99418
2018-04-16T13:40:58.315Z,99416
2018-04-16T13:43:01.528Z,99418
2018-04-16T13:45:04.663Z,99418
2018-04-16T13:47:07.806Z,99429
2018-04-16T13:49:10.979Z,99416
2018-04-16T13:51:14.123Z,99430
2018-04-16T13:53:17.964Z,99430
2018-04-16T13:55:21.173Z,99435
2018-04-16T13:57:24.333Z,99439
2018-04-16T13:59:27.484Z,99432
2018-04-16T14:01:30.691Z,99433
2018-04-16T14:03:33.932Z,99431
2018-04-16T14:05:37.179Z,99429
2018-04-16T14:07:40.410Z,99436
2018-04-16T14:09:43.564Z,99422
2018-04-16T14:11:47.582Z,99430
2018-04-16T14:13:51.663Z,99433
2018-04-16T14:15:54.950Z,99434
2018-04-16T14:17:58.639Z,99431
2018-04-16T14:20:01.937Z,99439
2018-04-16T14:22:05.133Z,99434
2018-04-16T14:24:08.287Z,99437
2018-04-16T14:26:12.247Z,99431
2018-04-16T14:28:15.728Z,99437
2018-04-16T14:30:19.753Z,99442
2018-04-16T14:32:23.687Z,99440
2018-04-16T14:34:26.866Z,99445
2018-04-16T14:36:30.056Z,99439
2018-04-16T14:38:33.207Z,99462
2018-04-16T14:40:37.152Z,99458
2018-04-16T14:42:40.311Z,99461
2018-04-16T14:44:43.461Z,99470
2018-04-16T14:46:46.673Z,99465
2018-04-16T14:48:49.815Z,99472
2018-04-16T14:50:52.997Z,99466
2018-04-16T14:52:56.157Z,99471
2018-04-16T14:54:59.319Z,99476
2018-04-16T14:57:02.492Z,99477
2018-04-16T14:59:06.406Z,99476
2018-04-16T15:01:09.590Z,99482
2018-04-16T15:03:13.683Z,99479
2018-04-16T15:05:16.844Z,99479
2018-04-16T15:07:20.036Z,99474
2018-04-16T15:09:24.716Z,99479
2018-04-16T15:11:28.791Z,99488
2018-04-16T15:13:33.051Z,99488
2018-04-16T15:15:36.228Z,99496
2018-04-16T15:17:39.796Z,99496
2018-04-16T15:19:43.772Z,99484
2018-04-16T15:21:47.638Z,99477
2018-04-16T15:23:50.846Z,99493
2018-04-16T15:25:54.429Z,99489
2018-04-16T15:27:57.590Z,99493
2018-04-16T15:30:01.539Z,99490
2018-04-16T15:32:04.735Z,99493
2018-04-16T15:34:07.918Z,99484
2018-04-16T15:36:11.833Z,99492
2018-04-16T15:38:15.052Z,99489
2018-04-16T15:40:18.339Z,99489
2018-04-16T15:42:21.495Z,99495
2018-04-16T15:44:24.680Z,99497
2018-04-16T15:46:27.862Z,99495
2018-04-16T15:48:31.041Z,99507
2018-04-16T15:50:34.912Z,99501
2018-04-16T15:52:38.064Z,99503
2018-04-16T15:54:41.871Z,99493
2018-04-16T15:56:45.096Z,99498
2018-04-16T15:58:48.330Z,99500
2018-04-16T16:00:51.525Z,99501
2018-04-16T16:02:54.794Z,99505
2018-04-16T16:04:57.962Z,99500
2018-04-16T16:07:01.170Z,99500
2018-04-16T16:09:04.687Z,99509
2018-04-16T16:11:07.879Z,99496
2018-04-16T16:13:11.281Z,99496
2018-04-16T16:15:14.508Z,99504
2018-04-16T16:17:17.687Z,99506
2018-04-16T16:19:20.983Z,99500
2018-04-16T16:21:24.208Z,99507
2018-04-16T16:23:27.395Z,99504
2018-04-16T16:25:31.351Z,99515
2018-04-16T16:27:34.606Z,99509
2018-04-16T16:29:37.856Z,99511
2018-04-16T16:31:41.060Z,99508
2018-04-16T16:33:44.980Z,99514
2018-04-16T16:35:49.008Z,99517
2018-04-16T16:37:53.155Z,99525
2018-04-16T16:39:56.441Z,99528
2018-04-16T16:42:00.476Z,99523
2018-04-16T16:44:04.400Z,99534
2018-04-16T16:46:08.704Z,99527
2018-04-16T16:48:12.420Z,99541
2018-04-16T16:50:15.693Z,99532
2018-04-16T16:52:18.923Z,99543
2018-04-16T16:54:22.149Z,99547
2018-04-16T16:56:25.443Z,99546
2018-04-16T16:58:28.607Z,99546
2018-04-16T17:00:32.514Z,99540
2018-04-16T17:02:35.760Z,99542
2018-04-16T17:04:38.863Z,99547
2018-04-16T17:06:42.015Z,99545
2018-04-16T17:08:45.195Z,99548
2018-04-16T17:10:48.339Z,99560
2018-04-16T17:12:52.675Z,99554
2018-04-16T17:14:56.987Z,99556
2018-04-16T17:17:00.246Z,99556
2018-04-16T17:19:04.174Z,99557
2018-04-16T17:21:08.119Z,99553
2018-04-16T17:23:11.276Z,99562
2018-04-16T17:25:14.424Z,99566
2018-04-16T17:27:18.386Z,99561
2018-04-16T17:29:21.579Z,99574
2018-04-16T17:31:25.961Z,99577
2018-04-16T17:33:29.328Z,99583
2018-04-16T17:35:33.356Z,99585
2018-04-16T17:37:36.602Z,99588
2018-04-16T17:39:39.810Z,99583
2018-04-16T17:41:42.955Z,99595
2018-04-16T17:43:46.896Z,99593
2018-04-16T17:45:50.039Z,99597
2018-04-16T17:47:53.767Z,99606
2018-04-16T17:49:56.938Z,99609
2018-04-16T17:52:00.338Z,99624
2018-04-16T17:54:04.339Z,99618
2018-04-16T17:56:07.526Z,99622
2018-04-16T17:58:10.707Z,99628
2018-04-16T18:00:13.912Z,99630
2018-04-16T18:02:17.068Z,99636
2018-04-16T18:04:20.250Z,99634
2018-04-16T18:06:23.426Z,99637
2018-04-16T18:08:26.659Z,99644
2018-04-16T18:10:29.859Z,99644
2018-04-16T18:12:34.131Z,99643
2018-04-16T18:14:37.397Z,99653
2018-04-16T18:16:40.637Z,99647
2018-04-16T18:18:43.815Z,99646
2018-04-16T18:20:46.983Z,99652
2018-04-16T18:22:50.131Z,99667
2018-04-16T18:24:53.314Z,99665
2018-04-16T18:26:57.303Z,99670
2018-04-16T18:29:01.207Z,99671
2018-04-16T18:31:04.852Z,99682
2018-04-16T18:33:08.090Z,99676
2018-04-16T18:35:11.995Z,99683
2018-04-16T18:37:15.339Z,99686
2018-04-16T18:39:19.324Z,99685
2018-04-16T18:41:22.500Z,99690
2018-04-16T18:43:25.639Z,99691
2018-04-16T18:45:28.822Z,99693
2018-04-16T18:47:32.003Z,99699
2018-04-16T18:49:35.495Z,99702
2018-04-16T18:51:38.639Z,99704
2018-04-16T18:53:41.839Z,99710
2018-04-16T18:55:44.982Z,99718
2018-04-16T18:57:48.139Z,99716
2018-04-16T18:59:52.172Z,99725
2018-04-16T19:01:55.843Z,99727
2018-04-16T19:03:59.095Z,99726
2018-04-16T19:06:03.036Z,99730
2018-04-16T19:08:06.190Z,99736
2018-04-16T19:10:09.364Z,99735
2018-04-16T19:12:12.582Z,99749
2018-04-16T19:14:16.215Z,99759
2018-04-16T19:16:19.579Z,99756
2018-04-16T19:18:23.568Z,99761
2018-04-16T19:20:32.228Z,99765
2018-04-16T19:22:37.907Z,99772
2018-04-16T19:24:41.936Z,99780
2018-04-16T19:26:51.540Z,99777
2018-04-16T19:28:54.707Z,99785
2018-04-16T19:30:57.932Z,99785
2018-04-16T19:33:07.381Z,99794
2018-04-16T19:35:10.568Z,99797
2018-04-16T19:37:14.732Z,99798
2018-04-16T19:39:17.923Z,99813
2018-04-16T19:41:21.426Z,99798
2018-04-16T19:43:25.387Z,99800
2018-04-16T19:45:28.642Z,99818
2018-04-16T19:47:31.814Z,99821
2018-04-16T19:49:40.816Z,99826
2018-04-16T19:51:44.033Z,99821
2018-04-16T19:53:47.178Z,99830
2018-04-16T19:55:55.897Z,99834
2018-04-16T19:58:04.539Z,99842
2018-04-16T20:00:07.717Z,99839
2018-04-16T20:02:16.347Z,99845
2018-04-16T20:04:19.494Z,99846
2018-04-16T20:06:22.663Z,99848
2018-04-16T20:08:25.962Z,99849
2018-04-16T20:10:29.985Z,99848
2018-04-16T20:12:33.159Z,99851
2018-04-16T20:14:36.326Z,99850
2018-04-16T20:16:39.473Z,99856
2018-04-16T20:18:42.641Z,99860
2018-04-16T20:20:45.824Z,99858
2018-04-16T20:22:49.765Z,99866
2018-04-16T20:24:52.939Z,99860
2018-04-16T20:26:58.744Z,99868
2018-04-16T20:29:01.892Z,99874
2018-04-16T20:31:05.191Z,99870
2018-04-16T20:33:08.348Z,99877
2018-04-16T20:35:12.260Z,99871
2018-04-16T20:37:15.437Z,99874
2018-04-16T20:39:18.628Z,99883
2018-04-16T20:41:21.836Z,99880
2018-04-16T20:43:24.987Z,99878
2018-04-16T20:45:28.164Z,99882
2018-04-16T20:47:31.337Z,99879
2018-04-16T20:49:35.243Z,99876
2018-04-16T20:51:39.166Z,99887
2018-04-16T20:53:43.085Z,99894
2018-04-16T20:55:46.231Z,99900
2018-04-16T20:57:49.408Z,99896
2018-04-16T20:59:52.575Z,99898
2018-04-16T21:01:55.781Z,99898
2018-04-16T21:03:59.292Z,99901
2018-04-16T21:06:02.446Z,99907
2018-04-16T21:08:06.403Z,99898
2018-04-16T21:10:09.589Z,99905
2018-04-16T21:12:14.180Z,99902
2018-04-16T21:14:17.332Z,99909
2018-04-16T21:16:20.503Z,99905
2018-04-16T21:18:23.692Z,99905
2018-04-16T21:20:26.844Z,99915
2018-04-16T21:22:30.759Z,99914
2018-04-16T21:24:33.960Z,99915
2018-04-16T21:26:37.107Z,99921
2018-04-16T21:28:41.020Z,99920
2018-04-16T21:30:44.960Z,99930
2018-04-16T21:32:48.883Z,99932
2018-04-16T21:34:52.834Z,99924
2018-04-16T21:36:56.123Z,99938
2018-04-16T21:39:00.983Z,99925
2018-04-16T21:41:05.582Z,99932
2018-04-16T21:43:08.836Z,99937
2018-04-16T21:45:12.012Z,99923
2018-04-16T21:47:15.352Z,99925
2018-04-16T21:49:18.538Z,99930
2018-04-16T21:51:22.492Z,99934
2018-04-16T21:53:25.638Z,99922
2018-04-16T21:55:28.796Z,99947
2018-04-16T21:57:32.752Z,99931
2018-04-16T21:59:35.894Z,99939
2018-04-16T22:01:39.075Z,99940
2018-04-16T22:03:42.227Z,99937
2018-04-16T22:05:45.411Z,99950
2018-04-16T22:07:48.558Z,99947
2018-04-16T22:09:52.509Z,99947
2018-04-16T22:11:55.698Z,99948
2018-04-16T22:13:59.608Z,99955
2018-04-16T22:16:03.522Z,99953
2018-04-16T22:18:06.963Z,99957
2018-04-16T22:20:10.114Z,99953
2018-04-16T22:22:13.269Z,99957
2018-04-16T22:24:17.218Z,99957
2018-04-16T22:26:21.491Z,99956
2018-04-16T22:28:24.668Z,99950
2018-04-16T22:30:27.814Z,99951
2018-04-16T22:32:30.968Z,99961
2018-04-16T22:34:34.134Z,99959
2018-04-16T22:36:37.286Z,99965
2018-04-16T22:38:40.435Z,99968
2018-04-16T22:40:43.619Z,99969
2018-04-16T22:42:46.775Z,99964
2018-04-16T22:44:50.719Z,99968
2018-04-16T22:46:54.631Z,99976
2018-04-16T22:48:58.583Z,99976
2018-04-16T22:51:02.235Z,99978
2018-04-16T22:53:05.415Z,99987
2018-04-16T22:55:08.558Z,99985
2018-04-16T22:57:11.726Z,99991
2018-04-16T22:59:14.875Z,99996
2018-04-16T23:01:18.024Z,99998
2018-04-16T23:03:23.079Z,100001
2018-04-16T23:05:26.999Z,100001
2018-04-16T23:07:30.948Z,100003
2018-04-16T23:09:34.095Z,100004
2018-04-16T23:11:37.293Z,100005
2018-04-16T23:13:40.452Z,100008
2018-04-16T23:15:44.372Z,100007
2018-04-16T23:17:48.331Z,100013
2018-04-16T23:19:51.483Z,100010
2018-04-16T23:21:54.639Z,100008
2018-04-16T23:23:57.818Z,100005
2018-04-16T23:26:01.763Z,100011
2018-04-16T23:28:04.920Z,100006
2018-04-16T23:30:08.110Z,100017
2018-04-16T23:32:11.292Z,100019
2018-04-16T23:34:15.203Z,100017
2018-04-16T23:36:19.126Z,100017
2018-04-16T23:38:24.215Z,100021
2018-04-16T23:40:27.371Z,100028
2018-04-16T23:42:30.519Z,100036
2018-04-16T23:44:33.700Z,100034
2018-04-16T23:46:37.625Z,100042
2018-04-16T23:48:41.560Z,100037
2018-04-16T23:50:44.713Z,100039
2018-04-16T23:52:47.871Z,100034
2018-04-16T23:54:51.819Z,100039
2018-04-16T23:56:55.211Z,100042
2018-04-16T23:58:59.131Z,100043
